createdAt,value
2022-11-14T00:04:54.618Z,69.96
2022-11-14T00:09:56.266Z,69.60
2022-11-14T00:14:57.957Z,69.84
2022-11-14T00:19:59.647Z,69.68
2022-11-14T00:25:01.325Z,69.64
2022-11-14T00:30:03.533Z,69.61
2022-11-14T00:35:05.443Z,69.93
2022-11-14T00:40:07.558Z,69.93
2022-11-14T00:45:09.937Z,69.97
2022-11-14T00:50:11.636Z,69.69
2022-11-14T00:55:13.264Z,69.73
2022-11-14T01:00:15.126Z,69.93
2022-11-14T01:05:16.872Z,69.66
2022-11-14T01:10:18.837Z,69.63
2022-11-14T01:15:20.479Z,69.52
2022-11-14T01:20:22.162Z,69.63
2022-11-14T01:25:23.786Z,69.67
2022-11-14T01:30:25.575Z,69.59
2022-11-14T01:35:27.284Z,69.35
2022-11-14T01:40:29.505Z,69.18
2022-11-14T01:45:47.897Z,69.22
2022-11-14T01:50:58.286Z,69.42
2022-11-14T01:56:04.902Z,69.18
2022-11-14T02:01:06.781Z,69.16
2022-11-14T02:06:12.887Z,69.21
2022-11-14T02:11:14.537Z,69.05
2022-11-14T02:16:16.419Z,69.39
2022-11-14T02:21:18.133Z,69.09
2022-11-14T02:26:21.403Z,69.06
2022-11-14T02:31:23.031Z,69.37
2022-11-14T02:36:24.962Z,69.23
2022-11-14T02:41:26.634Z,68.79
2022-11-14T02:46:28.263Z,68.98
2022-11-14T02:51:30.031Z,69.61
2022-11-14T02:56:31.688Z,69.29
2022-11-14T03:01:33.421Z,69.54
2022-11-14T03:06:35.088Z,69.62
2022-11-14T03:11:36.739Z,69.66
2022-11-14T03:16:38.445Z,69.80
2022-11-14T03:21:40.173Z,69.71
2022-11-14T03:26:41.833Z,69.73
2022-11-14T03:31:43.718Z,69.81
2022-11-14T03:36:46.264Z,69.92
2022-11-14T03:41:47.930Z,69.45
2022-11-14T03:46:49.642Z,69.22
2022-11-14T03:51:51.287Z,69.27
2022-11-14T03:56:52.941Z,69.49
2022-11-14T04:01:54.575Z,69.42
2022-11-14T04:06:56.298Z,69.62
2022-11-14T04:11:58.079Z,69.49
2022-11-14T04:16:59.742Z,69.47
2022-11-14T04:22:01.813Z,69.38
2022-11-14T04:27:03.628Z,69.67
2022-11-14T04:32:05.313Z,69.30
2022-11-14T04:37:06.998Z,69.18
2022-11-14T04:42:08.650Z,68.93
2022-11-14T04:47:10.321Z,69.16
2022-11-14T04:52:12.014Z,69.13
2022-11-14T04:57:14.231Z,69.30
2022-11-14T05:02:15.855Z,68.80
2022-11-14T05:07:17.646Z,68.28
2022-11-14T05:12:19.379Z,68.59
2022-11-14T05:17:21.045Z,67.88
2022-11-14T05:22:22.671Z,68.01
2022-11-14T05:27:24.418Z,67.87
2022-11-14T05:32:26.038Z,67.91
2022-11-14T05:37:27.682Z,67.80
2022-11-14T05:42:29.360Z,67.59
2022-11-14T05:47:30.968Z,67.22
2022-11-14T05:52:32.619Z,67.10
2022-11-14T05:57:35.857Z,67.07
2022-11-14T06:02:37.601Z,67.11
2022-11-14T06:07:39.322Z,67.07
2022-11-14T06:12:41.137Z,67.17
2022-11-14T06:17:42.776Z,67.21
2022-11-14T06:22:44.446Z,67.24
2022-11-14T06:27:46.077Z,67.19
2022-11-14T06:32:47.751Z,67.27
2022-11-14T06:37:49.364Z,67.49
2022-11-14T06:42:51.018Z,68.15
2022-11-14T06:47:52.638Z,68.10
2022-11-14T06:52:54.281Z,68.29
2022-11-14T06:57:56.308Z,68.70
2022-11-14T07:02:57.997Z,68.26
2022-11-14T07:07:59.699Z,67.76
2022-11-14T07:13:01.340Z,68.86
2022-11-14T07:18:02.992Z,69.08
2022-11-14T07:23:04.644Z,68.51
2022-11-14T07:28:07.209Z,68.31
2022-11-14T07:33:08.832Z,68.40
2022-11-14T07:38:10.477Z,68.17
2022-11-14T07:43:12.101Z,67.91
2022-11-14T07:48:13.720Z,68.16
2022-11-14T07:53:16.744Z,68.22
2022-11-14T07:58:18.642Z,68.03
2022-11-14T08:03:20.288Z,67.80
2022-11-14T08:08:21.994Z,67.53
2022-11-14T08:13:33.237Z,67.50
2022-11-14T08:18:35.466Z,67.38
2022-11-14T08:23:37.174Z,67.70
2022-11-14T08:28:39.023Z,67.50
2022-11-14T08:33:40.717Z,67.34
2022-11-14T08:38:42.490Z,67.49
2022-11-14T08:43:45.194Z,68.17
2022-11-14T08:48:46.852Z,67.82
2022-11-14T08:53:52.440Z,67.50
2022-11-14T08:58:59.802Z,67.59
2022-11-14T09:04:02.637Z,67.15
2022-11-14T09:09:05.506Z,67.01
2022-11-14T09:14:13.171Z,67.06
2022-11-14T09:19:15.884Z,67.60
2022-11-14T09:24:20.645Z,67.42
2022-11-14T09:29:26.590Z,67.27
2022-11-14T09:34:29.355Z,67.17
2022-11-14T09:39:38.017Z,67.49
2022-11-14T09:44:59.479Z,67.64
2022-11-14T09:50:14.568Z,68.12
2022-11-14T09:55:36.955Z,67.70
2022-11-14T10:01:09.091Z,67.21
2022-11-14T10:06:22.957Z,67.37
2022-11-14T10:11:45.493Z,68.13
2022-11-14T10:17:34.992Z,67.44
2022-11-14T10:22:40.491Z,67.47
2022-11-14T10:28:24.019Z,66.76
2022-11-14T10:34:06.351Z,65.96
2022-11-14T10:39:31.051Z,65.29
2022-11-14T10:45:13.160Z,66.03
2022-11-14T10:50:23.165Z,65.89
2022-11-14T10:55:49.780Z,65.57
2022-11-14T11:00:47.854Z,65.31
2022-11-14T11:05:51.939Z,64.94
2022-11-14T11:11:17.830Z,64.62
2022-11-14T11:16:34.865Z,64.69
2022-11-14T11:21:50.231Z,64.91
2022-11-14T11:27:26.211Z,64.27
2022-11-14T11:32:28.310Z,64.80
2022-11-14T11:37:44.592Z,64.92
2022-11-14T11:43:37.998Z,65.07
2022-11-14T11:48:46.551Z,64.04
2022-11-14T11:54:00.520Z,63.35
2022-11-14T11:59:27.967Z,62.17
2022-11-14T12:04:30.797Z,61.93
2022-11-14T12:15:32.212Z,62.42
2022-11-14T12:21:10.048Z,62.67
2022-11-14T12:26:31.466Z,62.29
2022-11-14T12:31:35.434Z,62.36
2022-11-14T12:36:44.807Z,61.70
2022-11-14T12:41:49.691Z,61.89
2022-11-14T12:47:04.824Z,61.81
2022-11-14T12:52:45.409Z,62.02
2022-11-14T12:58:09.068Z,61.94
2022-11-14T13:03:31.752Z,62.01
2022-11-14T13:09:13.025Z,61.91
2022-11-14T13:14:33.369Z,62.62
2022-11-14T13:20:03.602Z,63.18
2022-11-14T13:25:11.355Z,63.43
2022-11-14T13:30:13.053Z,63.50
2022-11-14T13:35:45.757Z,63.58
2022-11-14T13:40:55.624Z,63.74
2022-11-14T13:46:21.316Z,63.72
2022-11-14T13:51:42.735Z,63.83
2022-11-14T13:57:09.134Z,63.97
2022-11-14T14:02:10.711Z,64.22
2022-11-14T14:07:15.453Z,64.21
2022-11-14T14:12:29.099Z,64.45
2022-11-14T14:17:43.429Z,63.92
2022-11-14T14:29:24.839Z,63.89
2022-11-14T14:34:31.567Z,63.84
2022-11-14T14:39:33.317Z,63.97
2022-11-14T14:44:51.627Z,64.04
2022-11-14T14:49:53.416Z,64.03
2022-11-14T14:54:57.382Z,64.54
2022-11-14T15:00:29.880Z,64.33
2022-11-14T15:05:32.712Z,64.65
2022-11-14T15:10:35.958Z,64.46
2022-11-14T15:15:47.073Z,64.41
2022-11-14T15:21:12.272Z,64.79
2022-11-14T15:26:31.706Z,64.85
2022-11-14T15:31:47.225Z,65.32
2022-11-14T15:37:13.117Z,65.63
2022-11-14T15:42:24.232Z,65.81
2022-11-14T15:47:27.713Z,65.71
2022-11-14T15:52:41.141Z,65.80
2022-11-14T15:57:45.380Z,65.88
2022-11-14T16:03:12.449Z,65.97
2022-11-14T16:08:14.595Z,65.87
2022-11-14T16:13:17.312Z,65.90
2022-11-14T16:18:29.174Z,65.95
2022-11-14T16:23:32.016Z,65.98
2022-11-14T16:28:35.944Z,65.90
2022-11-14T16:33:40.779Z,65.87
2022-11-14T16:38:42.548Z,65.85
2022-11-14T16:43:44.283Z,65.55
2022-11-14T16:48:48.088Z,65.71
2022-11-14T16:53:56.410Z,65.47
2022-11-14T16:59:01.527Z,65.28
2022-11-14T17:04:03.620Z,65.26
2022-11-14T17:09:05.444Z,65.32
2022-11-14T17:14:11.651Z,65.35
2022-11-14T17:19:16.387Z,65.44
2022-11-14T17:24:18.517Z,65.19
2022-11-14T17:29:20.707Z,65.28
2022-11-14T17:34:22.426Z,64.76
2022-11-14T17:39:26.926Z,65.09
2022-11-14T17:44:29.718Z,65.32
2022-11-14T17:49:32.272Z,65.57
2022-11-14T17:54:37.750Z,65.46
2022-11-14T17:59:41.438Z,65.63
2022-11-14T18:04:45.743Z,65.68
2022-11-14T18:09:51.649Z,65.58
2022-11-14T18:14:53.340Z,65.34
2022-11-14T18:19:56.647Z,65.32
2022-11-14T18:25:04.868Z,65.00
2022-11-14T18:30:39.343Z,65.05
2022-11-14T18:35:33.641Z,64.83
2022-11-14T18:40:35.407Z,64.96
2022-11-14T18:45:39.223Z,65.01
2022-11-14T18:50:40.962Z,65.27
2022-11-14T18:55:42.871Z,64.98
2022-11-14T19:00:45.302Z,65.37
2022-11-14T19:05:48.103Z,65.20
2022-11-14T19:10:49.832Z,65.28
2022-11-14T19:16:05.289Z,64.99
2022-11-14T19:21:10.686Z,65.22
2022-11-14T19:26:14.442Z,65.44
2022-11-14T19:31:17.900Z,65.48
2022-11-14T19:36:57.611Z,65.72
2022-11-14T19:41:55.108Z,65.49
2022-11-14T19:46:58.769Z,65.71
2022-11-14T19:52:01.449Z,65.69
2022-11-14T19:57:04.169Z,65.88
2022-11-14T20:02:06.106Z,65.80
2022-11-14T20:07:07.918Z,65.99
2022-11-14T20:12:09.569Z,65.99
2022-11-14T20:17:12.481Z,66.17
2022-11-14T20:22:14.206Z,66.40
2022-11-14T20:27:15.870Z,66.85
2022-11-14T20:32:17.574Z,66.99
2022-11-14T20:37:19.614Z,67.04
2022-11-14T20:42:21.247Z,67.20
2022-11-14T20:47:22.949Z,67.33
2022-11-14T20:52:24.612Z,67.64
2022-11-14T20:57:26.227Z,67.74
2022-11-14T21:02:27.888Z,68.09
2022-11-14T21:07:29.599Z,68.22
2022-11-14T21:12:31.336Z,68.19
2022-11-14T21:17:33.005Z,68.10
2022-11-14T21:22:34.656Z,68.00
2022-11-14T21:27:36.282Z,68.14
2022-11-14T21:32:37.954Z,68.01
2022-11-14T21:37:39.685Z,67.94
2022-11-14T21:42:42.121Z,68.08
2022-11-14T21:47:43.841Z,68.08
2022-11-14T21:52:45.469Z,68.36
2022-11-14T21:57:47.094Z,67.93
2022-11-14T22:03:07.445Z,68.00
2022-11-14T22:08:09.089Z,68.10
2022-11-14T22:13:10.761Z,67.78
2022-11-14T22:18:12.585Z,67.99
2022-11-14T22:23:15.275Z,67.97
2022-11-14T22:28:16.910Z,67.99
2022-11-14T22:33:18.881Z,68.12
2022-11-14T22:38:20.573Z,68.20
2022-11-14T22:43:22.545Z,68.62
2022-11-14T22:48:25.598Z,68.50
2022-11-14T22:53:31.984Z,68.58
2022-11-14T22:58:36.496Z,68.51
2022-11-14T23:03:39.147Z,68.79
2022-11-14T23:08:41.874Z,69.17
2022-11-14T23:13:47.144Z,69.18
2022-11-14T23:18:50.464Z,69.07
2022-11-14T23:23:53.535Z,69.29
2022-11-14T23:29:23.003Z,68.98
2022-11-14T23:34:25.068Z,69.01
2022-11-14T23:39:26.724Z,68.56
2022-11-14T23:44:28.365Z,68.82
2022-11-14T23:49:30.027Z,69.29
2022-11-14T23:54:31.692Z,69.37
2022-11-14T23:59:33.317Z,69.46
